Portada
METAR-TAF:

METAR-TAF

Aeropuertos :

Pointe-Noire, Congo

Aeropuerto de Pointe-Noire

latitud: 04-49S, longitud: 011-54E, altitud: 17 m

Observación

El informe se hizo hace 27 minutos, a las 20:00 UTC
Viento 5 kt del sur-suroeste
Temperatura 26°C
Humedad 94%
Presión 1012 hPa
Visibilidad 10 km o más
Escasas nubes a una altura de 1000 ft

METAR: FCPP 272000Z 21005KT 9999 FEW010 26/25 Q1012 NOSIG

Hora: 21:27 (20:27 UTC)

Pronóstico

El informe se hizo hace 3 horas y 27 minutos, a las 17:00 UTC
Pronóstico válido del 27 a las 18 UTC al 28 a las 18 UTC
Viento 7 kt del sur
Visibilidad: 9000 m
Nubes dispersas a una altura de 1300 ft
Nubes dispersas a una altura de 2300 ft
Evolucionando progresivamente
del 28 a las 12 UTC al 28 a las 15 UTC
Nubes dispersas a una altura de 1500 ft
Escasas nubes a una altura de 3000 ft, Cumulonimbus.

TAF: FCPP 271700Z 2718/2818 18007KT 9000 SCT013 SCT023 BECMG 2812/2815 SCT015 FEW030CB

Observaciones y pronósticos meteorológicos de más de 4000 aeropuertos (mensajes METAR y TAF).

Los puntos amarillos y rojos representan las estaciones disponibles.

Ponga el ratón en el punto deseado para ver el nombre de la estación.

Haga clic para ver las observaciones y los pronósticos meteorológicos.

Para cambiar el mapa : haga clic en los botones verdes con una cruz de color negro para hacer un zoom, en el botón verde con un guión para alejar o en las flechas verdes para mapas adyacentes.


METAR-TAF: